Time;durP1;ratioP1;P1;durP2;ratioP2;P2;SDS_P1;SDS_P2;PMS_P1;PMS_P2;Temp;Humidity;BMP_temperature;BMP_pressure;BME280_temperature;BME280_humidity;BME280_pressure;Samples;Min_cycle;Max_cycle;Signal;HPM_P1;HPM_P2
2022/12/07 00:01:20;;;;;;;12.37;7.43;;;2.80;99.90;;;;;;5051487;28;20912;-69
2022/12/07 00:03:48;;;;;;;11.70;7.80;;;2.80;99.90;;;;;;5050419;28;20398;-68
2022/12/07 00:06:16;;;;;;;13.80;8.27;;;2.80;99.90;;;;;;5047668;28;20425;-71
2022/12/07 00:08:42;;;;;;;14.80;6.90;;;2.80;99.90;;;;;;5044626;28;20410;-70
2022/12/07 00:11:14;;;;;;;12.67;6.07;;;2.90;99.90;;;;;;5047923;28;20550;-69
2022/12/07 00:13:40;;;;;;;13.30;7.30;;;2.90;99.90;;;;;;5045628;28;20409;-71
2022/12/07 00:16:09;;;;;;;12.70;7.30;;;2.90;99.90;;;;;;5043066;28;20425;-70
2022/12/07 00:18:35;;;;;;;10.00;6.13;;;2.90;99.90;;;;;;5050858;28;20405;-69
2022/12/07 00:21:16;;;;;;;12.37;7.43;;;2.90;99.90;;;;;;5042122;28;20931;-70
2022/12/07 00:23:43;;;;;;;11.63;6.60;;;2.80;99.90;;;;;;5051039;28;20185;-69
2022/12/07 00:26:11;;;;;;;13.43;7.10;;;2.70;99.90;;;;;;5049945;28;20397;-69
2022/12/07 00:28:37;;;;;;;12.13;6.93;;;2.60;99.90;;;;;;5050840;28;20406;-68
2022/12/07 00:31:05;;;;;;;12.60;8.17;;;2.60;99.90;;;;;;5050502;28;20416;-69
2022/12/07 00:33:32;;;;;;;12.67;6.33;;;2.60;99.90;;;;;;5051070;28;20410;-68
2022/12/07 00:35:59;;;;;;;9.50;6.87;;;2.60;99.90;;;;;;5050644;28;20449;-69
2022/12/07 00:38:26;;;;;;;9.80;6.30;;;2.60;99.90;;;;;;5047681;28;20412;-70
2022/12/07 00:41:19;;;;;;;8.70;6.47;;;2.60;99.90;;;;;;5039966;28;20398;-70
2022/12/07 00:43:46;;;;;;;10.13;7.10;;;2.60;99.90;;;;;;5049048;28;20539;-70
2022/12/07 00:46:13;;;;;;;10.70;7.23;;;2.60;99.90;;;;;;5043670;28;20832;-70
2022/12/07 00:48:39;;;;;;;12.50;7.10;;;2.50;99.90;;;;;;5050427;28;20820;-70
2022/12/07 00:51:05;;;;;;;11.07;8.73;;;2.50;99.90;;;;;;5050525;28;20654;-70
2022/12/07 00:53:34;;;;;;;11.50;7.40;;;2.50;99.90;;;;;;5050620;28;20783;-70
2022/12/07 00:56:08;;;;;;;12.00;7.73;;;2.50;99.90;;;;;;5050292;28;20979;-69
2022/12/07 00:58:34;;;;;;;9.97;7.33;;;2.40;99.90;;;;;;5050773;28;20416;-69
2022/12/07 01:01:02;;;;;;;8.97;5.73;;;2.40;99.90;;;;;;5050380;28;20413;-70
2022/12/07 01:03:27;;;;;;;12.77;7.27;;;2.30;99.90;;;;;;5043397;28;20175;-73
2022/12/07 01:05:55;;;;;;;10.60;6.73;;;2.30;99.90;;;;;;5047776;28;20410;-69
2022/12/07 01:08:21;;;;;;;9.43;6.47;;;2.20;99.90;;;;;;5052301;28;20558;-69
2022/12/07 01:10:47;;;;;;;12.00;7.07;;;2.10;99.90;;;;;;5038006;28;20410;-70
2022/12/07 01:13:13;;;;;;;8.90;6.47;;;2.10;99.90;;;;;;5054262;28;20427;-68
2022/12/07 01:15:44;;;;;;;8.17;5.70;;;2.10;99.90;;;;;;5052246;28;20566;-69
2022/12/07 01:18:10;;;;;;;6.43;5.30;;;2.10;99.90;;;;;;5053425;28;20492;-69
2022/12/07 01:20:36;;;;;;;12.43;7.00;;;2.10;99.90;;;;;;5053972;28;20484;-68
2022/12/07 01:23:02;;;;;;;10.43;7.33;;;2.10;99.90;;;;;;5053526;28;20494;-69
2022/12/07 01:25:28;;;;;;;9.10;6.73;;;2.10;99.90;;;;;;5052788;28;20783;-69
2022/12/07 01:27:53;;;;;;;8.33;6.83;;;2.20;99.90;;;;;;5054313;28;20906;-69
2022/12/07 01:30:19;;;;;;;11.37;7.80;;;2.20;99.90;;;;;;5050430;28;20180;-69
2022/12/07 01:32:44;;;;;;;16.57;9.23;;;2.10;99.90;;;;;;5050202;28;20262;-68
2022/12/07 01:35:10;;;;;;;14.53;8.17;;;2.20;99.90;;;;;;5053649;28;20261;-69
2022/12/07 01:37:37;;;;;;;9.70;6.83;;;2.20;99.90;;;;;;5053778;28;20175;-68
2022/12/07 01:40:04;;;;;;;9.87;7.13;;;2.20;99.90;;;;;;5053608;28;20171;-68
2022/12/07 01:42:29;;;;;;;11.10;6.47;;;2.20;99.90;;;;;;5052413;28;20477;-69
2022/12/07 01:45:32;;;;;;;8.97;5.83;;;2.20;99.90;;;;;;5053714;28;20425;-69
2022/12/07 01:47:58;;;;;;;10.70;7.17;;;2.20;99.90;;;;;;5052012;28;20575;-69
2022/12/07 01:50:27;;;;;;;9.37;5.23;;;2.20;99.90;;;;;;5053729;28;20466;-69
2022/12/07 01:52:56;;;;;;;8.77;6.40;;;2.20;99.90;;;;;;5047741;28;20778;-69
2022/12/07 01:55:22;;;;;;;8.87;6.37;;;2.20;99.90;;;;;;5053667;28;21115;-69
2022/12/07 01:57:50;;;;;;;10.90;6.83;;;2.20;99.90;;;;;;5028094;28;20501;-70
2022/12/07 02:00:17;;;;;;;10.30;6.10;;;2.20;99.90;;;;;;5053506;28;20433;-70
2022/12/07 02:02:56;;;;;;;6.53;5.37;;;2.30;99.90;;;;;;5051648;28;20420;-68
2022/12/07 02:05:24;;;;;;;8.57;5.60;;;2.30;99.90;;;;;;5044030;28;20440;-69
2022/12/07 02:07:52;;;;;;;6.97;5.77;;;2.20;99.90;;;;;;5040741;28;20516;-69
2022/12/07 02:10:22;;;;;;;7.57;4.80;;;2.20;99.90;;;;;;5040693;28;20425;-69
2022/12/07 02:12:55;;;;;;;8.00;5.53;;;2.20;99.90;;;;;;5041201;28;20449;-69
2022/12/07 02:15:23;;;;;;;4.60;4.20;;;2.20;99.90;;;;;;5040433;28;20556;-69
2022/12/07 02:17:55;;;;;;;6.50;3.93;;;2.20;99.90;;;;;;5037049;28;20505;-71
2022/12/07 02:20:24;;;;;;;6.53;4.80;;;2.20;99.90;;;;;;5044325;28;20430;-70
2022/12/07 02:23:01;;;;;;;6.47;4.63;;;2.20;99.90;;;;;;5045689;28;20455;-69
2022/12/07 02:25:30;;;;;;;7.53;5.57;;;2.20;99.90;;;;;;5046050;28;20878;-69
2022/12/07 02:28:34;;;;;;;5.40;3.80;;;2.20;99.90;;;;;;5045980;28;20413;-69
2022/12/07 02:31:07;;;;;;;5.60;4.90;;;2.20;99.90;;;;;;5043925;28;20790;-67
2022/12/07 02:33:41;;;;;;;6.77;4.20;;;2.20;99.90;;;;;;5044852;28;20492;-69
2022/12/07 02:36:14;;;;;;;5.47;3.67;;;2.20;99.90;;;;;;5045559;28;20417;-69
2022/12/07 02:38:55;;;;;;;6.33;3.90;;;2.10;99.90;;;;;;5047339;28;20946;-69
2022/12/07 02:41:37;;;;;;;5.77;4.57;;;2.00;99.90;;;;;;5045520;28;20773;-68
2022/12/07 02:44:14;;;;;;;6.67;4.40;;;2.10;99.90;;;;;;5044842;28;20432;-69
2022/12/07 02:46:44;;;;;;;7.90;5.13;;;2.00;99.90;;;;;;5045972;28;20558;-68
2022/12/07 02:49:11;;;;;;;7.57;5.17;;;2.00;99.90;;;;;;5043490;28;20783;-69
2022/12/07 02:51:42;;;;;;;5.80;5.17;;;2.00;99.90;;;;;;5044868;28;20855;-69
2022/12/07 02:54:18;;;;;;;7.50;5.10;;;2.00;99.90;;;;;;5044793;28;20465;-69
2022/12/07 02:56:43;;;;;;;6.73;4.20;;;2.00;99.90;;;;;;5049607;28;20414;-70
2022/12/07 02:59:09;;;;;;;8.33;5.13;;;1.90;99.90;;;;;;5051559;28;20505;-70
2022/12/07 03:01:41;;;;;;;6.60;4.43;;;1.90;99.90;;;;;;5054376;28;20381;-70
2022/12/07 03:04:48;;;;;;;7.23;5.43;;;2.00;99.90;;;;;;5051838;28;20210;-70
2022/12/07 03:07:32;;;;;;;7.60;5.00;;;2.00;99.90;;;;;;5054712;28;20508;-69
2022/12/07 03:10:03;;;;;;;5.53;4.80;;;2.00;99.90;;;;;;5049394;28;20417;-69
2022/12/07 03:12:48;;;;;;;9.83;5.80;;;2.00;99.90;;;;;;5050381;28;20440;-69
2022/12/07 03:15:40;;;;;;;8.47;5.80;;;2.00;99.90;;;;;;5048656;28;20479;-69
2022/12/07 03:18:08;;;;;;;6.63;5.33;;;2.00;99.90;;;;;;5046784;28;20393;-69
2022/12/07 03:20:35;;;;;;;12.60;5.50;;;2.00;99.90;;;;;;5049805;28;20420;-69
2022/12/07 03:23:05;;;;;;;8.27;5.37;;;2.00;99.90;;;;;;5047310;28;20564;-69
2022/12/07 03:25:33;;;;;;;6.90;4.90;;;2.00;99.90;;;;;;5048277;28;20413;-69
2022/12/07 03:28:04;;;;;;;8.40;5.80;;;2.10;99.90;;;;;;5048671;28;20414;-70
2022/12/07 03:30:45;;;;;;;10.47;6.77;;;2.10;99.90;;;;;;5054914;28;20423;-70
2022/12/07 03:33:42;;;;;;;8.83;6.40;;;2.20;99.90;;;;;;5056656;28;20463;-69
2022/12/07 03:36:15;;;;;;;11.30;7.13;;;2.20;99.90;;;;;;5037928;28;20555;-69
2022/12/07 03:38:49;;;;;;;9.97;5.40;;;2.20;99.90;;;;;;5056489;28;20509;-71
2022/12/07 03:41:22;;;;;;;8.93;6.13;;;2.20;99.90;;;;;;5057475;28;20425;-69
2022/12/07 03:43:48;;;;;;;13.93;6.50;;;2.20;99.90;;;;;;5056672;28;20925;-70
2022/12/07 03:46:42;;;;;;;9.70;6.60;;;2.30;99.90;;;;;;5055699;28;20422;-70
2022/12/07 03:49:13;;;;;;;9.10;6.77;;;2.30;99.90;;;;;;5055434;28;20445;-69
2022/12/07 03:52:02;;;;;;;12.97;6.47;;;2.30;99.90;;;;;;5058646;28;20437;-69
2022/12/07 03:54:41;;;;;;;12.77;6.73;;;2.30;99.90;;;;;;5058504;28;20441;-70
2022/12/07 03:57:08;;;;;;;7.07;5.07;;;2.30;99.90;;;;;;5055204;28;20784;-70
2022/12/07 03:59:34;;;;;;;12.07;7.10;;;2.30;99.90;;;;;;5058329;28;20961;-70
2022/12/07 04:02:06;;;;;;;14.13;8.93;;;2.30;99.90;;;;;;5054045;28;20516;-70
2022/12/07 04:04:32;;;;;;;13.10;6.73;;;2.30;99.90;;;;;;5049652;28;20175;-70
2022/12/07 04:06:58;;;;;;;11.17;6.33;;;2.30;99.90;;;;;;5052321;28;20432;-70
2022/12/07 04:09:24;;;;;;;14.23;6.50;;;2.30;99.90;;;;;;5038469;28;20422;-70
2022/12/07 04:11:50;;;;;;;10.40;6.27;;;2.30;99.90;;;;;;5053451;28;20929;-71
2022/12/07 04:14:18;;;;;;;11.20;6.23;;;2.30;99.90;;;;;;5054820;28;20197;-72
2022/12/07 04:16:53;;;;;;;10.47;6.20;;;2.30;99.90;;;;;;5054479;28;20183;-69
2022/12/07 04:19:21;;;;;;;11.40;7.20;;;2.30;99.90;;;;;;5053001;28;20491;-70
2022/12/07 04:21:47;;;;;;;9.40;6.30;;;2.30;99.90;;;;;;5054855;28;20450;-70
2022/12/07 04:24:14;;;;;;;11.40;7.13;;;2.20;99.90;;;;;;5054695;28;20420;-70
2022/12/07 04:26:41;;;;;;;13.73;8.73;;;2.20;99.90;;;;;;5035040;28;20415;-71
2022/12/07 04:29:07;;;;;;;11.33;7.33;;;2.20;99.90;;;;;;5055888;28;20444;-70
2022/12/07 04:31:33;;;;;;;11.23;7.10;;;2.20;99.90;;;;;;5053269;28;20954;-70
2022/12/07 04:33:59;;;;;;;9.10;6.20;;;2.20;99.90;;;;;;5040601;28;20456;-69
2022/12/07 04:36:24;;;;;;;11.10;8.10;;;2.20;99.90;;;;;;5060662;28;20170;-69
2022/12/07 04:38:52;;;;;;;9.37;7.60;;;2.20;99.90;;;;;;5059604;28;20216;-69
2022/12/07 04:41:18;;;;;;;10.67;7.90;;;2.20;99.90;;;;;;5055275;23;20215;-64
2022/12/07 04:43:43;;;;;;;14.73;7.83;;;2.10;99.90;;;;;;5027998;28;20863;-65
2022/12/07 04:46:09;;;;;;;12.30;7.70;;;2.20;99.90;;;;;;5031856;28;20230;-65
2022/12/07 04:48:35;;;;;;;13.60;7.33;;;2.20;99.90;;;;;;5031531;28;20254;-65
2022/12/07 04:51:01;;;;;;;12.30;8.17;;;2.20;99.90;;;;;;5021440;28;20196;-65
2022/12/07 04:53:27;;;;;;;13.67;9.10;;;2.30;99.90;;;;;;5011920;28;20176;-65
2022/12/07 04:55:52;;;;;;;13.53;9.10;;;2.30;99.90;;;;;;5011881;28;20906;-65
2022/12/07 04:58:18;;;;;;;18.63;8.23;;;2.20;99.90;;;;;;5012952;28;20558;-64
2022/12/07 05:00:44;;;;;;;15.10;8.77;;;2.30;99.90;;;;;;5011784;28;20642;-64
2022/12/07 05:03:09;;;;;;;17.80;9.83;;;2.30;99.90;;;;;;5012269;28;20172;-65
2022/12/07 05:05:35;;;;;;;15.67;8.90;;;2.30;99.90;;;;;;5012961;28;20529;-65
2022/12/07 05:08:00;;;;;;;16.63;9.23;;;2.30;99.90;;;;;;5012889;28;20183;-64
2022/12/07 05:10:26;;;;;;;15.10;10.00;;;2.30;99.90;;;;;;5012984;28;20227;-63
2022/12/07 05:12:51;;;;;;;16.80;9.87;;;2.30;99.90;;;;;;5012665;28;20691;-64
2022/12/07 05:15:17;;;;;;;16.30;10.07;;;2.40;99.90;;;;;;5012397;28;20203;-64
2022/12/07 05:17:44;;;;;;;16.87;9.93;;;2.40;99.90;;;;;;5012150;28;20651;-65
2022/12/07 05:20:10;;;;;;;16.23;10.33;;;2.40;99.90;;;;;;5011605;28;20435;-65
2022/12/07 05:22:35;;;;;;;17.83;10.57;;;2.50;99.90;;;;;;5011985;28;20423;-64
2022/12/07 05:25:01;;;;;;;22.53;11.43;;;2.50;99.90;;;;;;5012253;28;20931;-64
2022/12/07 05:27:26;;;;;;;20.33;10.10;;;2.50;99.90;;;;;;5011953;28;20250;-64
2022/12/07 05:29:52;;;;;;;20.30;9.60;;;2.60;99.90;;;;;;5011832;28;20208;-64
2022/12/07 05:32:18;;;;;;;18.60;12.00;;;2.60;99.90;;;;;;5011967;28;20540;-65
2022/12/07 05:34:44;;;;;;;18.97;10.90;;;2.70;99.90;;;;;;5016083;28;20222;-64
2022/12/07 05:37:09;;;;;;;19.10;11.67;;;2.70;99.90;;;;;;5011683;28;20400;-65
2022/12/07 05:39:35;;;;;;;18.33;10.70;;;2.70;99.90;;;;;;5011873;28;20830;-65
2022/12/07 05:42:13;;;;;;;22.33;13.13;;;2.80;99.90;;;;;;5012063;28;20684;-64
2022/12/07 05:44:46;;;;;;;23.27;11.83;;;2.80;99.90;;;;;;5011527;28;20179;-64
2022/12/07 05:47:13;;;;;;;22.60;15.27;;;2.80;99.90;;;;;;5011825;28;20439;-65
2022/12/07 05:49:38;;;;;;;23.07;14.87;;;2.80;99.90;;;;;;5011354;28;20474;-64
2022/12/07 05:52:05;;;;;;;22.83;14.50;;;2.80;99.90;;;;;;5014452;28;20458;-65
2022/12/07 05:54:30;;;;;;;24.23;13.00;;;2.80;99.90;;;;;;5015052;28;20679;-65
2022/12/07 05:56:56;;;;;;;20.77;13.53;;;2.90;99.90;;;;;;5015062;28;20561;-64
2022/12/07 05:59:24;;;;;;;23.23;13.13;;;2.90;99.90;;;;;;5014935;28;20238;-65
2022/12/07 06:01:59;;;;;;;27.50;14.03;;;3.00;99.90;;;;;;5014726;28;20252;-64
2022/12/07 06:04:27;;;;;;;25.17;12.37;;;2.90;99.90;;;;;;5014804;28;20410;-65
2022/12/07 06:06:53;;;;;;;21.10;13.10;;;3.00;99.90;;;;;;5014800;28;20419;-65
2022/12/07 06:09:19;;;;;;;22.47;12.30;;;3.00;99.90;;;;;;5015046;28;20495;-64
2022/12/07 06:14:29;;;;;;;20.60;12.30;;;3.10;99.90;;;;;;5014739;28;20466;-64
2022/12/07 06:16:55;;;;;;;18.63;10.80;;;3.10;99.90;;;;;;5014707;28;20420;-64
2022/12/07 06:19:21;;;;;;;22.30;12.97;;;3.10;99.90;;;;;;5015015;28;20171;-65
2022/12/07 06:21:46;;;;;;;24.63;11.97;;;3.10;99.90;;;;;;5014991;28;20173;-64
2022/12/07 06:24:13;;;;;;;26.00;13.30;;;3.10;99.90;;;;;;5014107;28;20169;-65
2022/12/07 06:26:40;;;;;;;21.40;12.20;;;3.10;99.90;;;;;;5014456;28;20669;-65
2022/12/07 06:29:05;;;;;;;21.33;10.90;;;3.20;99.90;;;;;;5014184;28;20420;-65
2022/12/07 06:31:31;;;;;;;18.60;11.67;;;3.10;99.90;;;;;;5014820;28;20442;-64
2022/12/07 06:34:15;;;;;;;18.57;12.10;;;3.20;99.90;;;;;;5014568;28;20180;-65
2022/12/07 06:36:41;;;;;;;20.03;11.90;;;3.20;99.90;;;;;;5014212;28;20182;-65
2022/12/07 06:39:08;;;;;;;18.27;11.40;;;3.10;99.90;;;;;;5014093;28;20711;-65
2022/12/07 06:41:35;;;;;;;22.17;11.60;;;3.10;99.90;;;;;;5014234;28;20267;-67
2022/12/07 06:44:01;;;;;;;18.90;12.23;;;3.10;99.90;;;;;;5014045;28;20407;-65
2022/12/07 06:46:26;;;;;;;18.13;11.60;;;3.10;99.90;;;;;;5013751;28;20419;-65
2022/12/07 06:48:52;;;;;;;23.63;11.63;;;3.20;99.90;;;;;;5013680;28;20184;-65
2022/12/07 06:51:18;;;;;;;19.40;11.40;;;3.20;99.90;;;;;;5013931;28;20271;-64
2022/12/07 06:53:44;;;;;;;18.67;10.50;;;3.20;99.90;;;;;;4996411;28;20523;-65
2022/12/07 06:56:10;;;;;;;19.87;12.40;;;3.20;99.90;;;;;;5014332;28;20508;-65
2022/12/07 06:58:35;;;;;;;21.17;13.27;;;3.20;99.90;;;;;;5013482;28;20199;-65
2022/12/07 07:01:01;;;;;;;25.63;12.73;;;3.30;99.90;;;;;;5013990;28;20258;-64
2022/12/07 07:03:27;;;;;;;18.40;12.13;;;3.30;99.90;;;;;;5013498;28;20168;-65
2022/12/07 07:05:52;;;;;;;17.27;11.80;;;3.30;99.90;;;;;;5013833;28;20407;-65
2022/12/07 07:08:18;;;;;;;22.73;13.40;;;3.30;99.90;;;;;;5014043;28;20180;-65
2022/12/07 07:10:44;;;;;;;26.93;13.10;;;3.40;99.90;;;;;;5014015;28;20192;-64
2022/12/07 07:13:09;;;;;;;24.23;13.50;;;3.40;99.90;;;;;;5013782;28;20651;-64
2022/12/07 07:15:38;;;;;;;22.83;14.17;;;3.40;99.90;;;;;;5013231;28;20316;-64
2022/12/07 07:18:04;;;;;;;31.77;17.87;;;3.40;99.90;;;;;;5013659;28;20882;-64
2022/12/07 07:20:29;;;;;;;24.50;14.73;;;3.50;99.90;;;;;;5013996;28;20519;-63
2022/12/07 07:22:56;;;;;;;17.40;12.53;;;3.50;99.90;;;;;;5014082;28;20506;-65
2022/12/07 07:25:21;;;;;;;26.13;14.43;;;3.60;99.90;;;;;;5013806;28;20180;-64
2022/12/07 07:27:47;;;;;;;27.17;12.27;;;3.60;99.90;;;;;;5013999;28;20426;-63
2022/12/07 07:30:13;;;;;;;23.67;11.20;;;3.60;99.90;;;;;;5013684;28;21010;-64
2022/12/07 07:32:38;;;;;;;26.37;12.70;;;3.60;99.90;;;;;;5013233;28;20713;-65
2022/12/07 07:35:04;;;;;;;20.30;11.80;;;3.60;99.90;;;;;;5013452;28;20617;-65
2022/12/07 07:37:30;;;;;;;28.83;12.10;;;3.60;99.90;;;;;;5013547;28;21304;-64
2022/12/07 07:39:56;;;;;;;20.27;11.67;;;3.60;99.90;;;;;;5013207;28;20546;-63
2022/12/07 07:42:21;;;;;;;26.80;13.50;;;3.60;99.90;;;;;;5013384;28;20180;-64
2022/12/07 07:44:47;;;;;;;21.10;12.40;;;3.60;99.90;;;;;;5013187;28;20454;-65
2022/12/07 07:47:12;;;;;;;33.03;13.77;;;3.60;99.90;;;;;;5013207;28;20218;-64
2022/12/07 07:49:38;;;;;;;27.33;12.17;;;3.50;99.90;;;;;;5012668;28;20204;-64
2022/12/07 07:52:05;;;;;;;19.47;10.87;;;3.60;99.90;;;;;;5013020;28;20279;-65
2022/12/07 07:54:31;;;;;;;16.67;10.23;;;3.60;99.90;;;;;;5016119;28;20253;-66
2022/12/07 07:56:57;;;;;;;20.93;10.70;;;3.70;99.90;;;;;;5012676;28;20419;-64
2022/12/07 07:59:22;;;;;;;18.00;10.03;;;3.70;99.90;;;;;;5013080;28;20168;-64
2022/12/07 08:01:48;;;;;;;18.90;9.10;;;3.70;99.90;;;;;;5013156;28;20184;-65
2022/12/07 08:04:13;;;;;;;31.70;11.67;;;3.80;99.90;;;;;;5012546;28;20234;-65
2022/12/07 08:06:39;;;;;;;11.97;7.83;;;3.80;99.90;;;;;;5013190;28;20188;-64
2022/12/07 08:09:06;;;;;;;12.47;8.50;;;3.80;99.90;;;;;;5012699;28;20179;-64
2022/12/07 08:11:31;;;;;;;12.63;9.10;;;3.80;99.90;;;;;;5012581;28;20258;-65
2022/12/07 08:13:57;;;;;;;11.90;7.87;;;3.80;99.90;;;;;;5011246;28;20451;-66
2022/12/07 08:16:23;;;;;;;15.30;6.73;;;3.80;99.90;;;;;;4999313;28;20176;-65
2022/12/07 08:18:48;;;;;;;13.73;7.27;;;3.80;99.90;;;;;;5009771;28;20187;-64
2022/12/07 08:21:15;;;;;;;10.60;6.20;;;3.80;99.90;;;;;;5010340;28;20757;-66
2022/12/07 08:23:41;;;;;;;9.60;7.13;;;3.80;99.90;;;;;;5011330;28;20306;-66
2022/12/07 08:26:13;;;;;;;10.50;6.87;;;3.80;99.90;;;;;;5011916;28;20414;-65
2022/12/07 08:28:39;;;;;;;10.30;6.37;;;3.80;99.90;;;;;;5012215;28;20423;-65
2022/12/07 08:31:08;;;;;;;12.77;5.03;;;3.90;99.90;;;;;;5011889;28;20469;-65
2022/12/07 08:33:34;;;;;;;7.40;5.60;;;3.90;99.90;;;;;;5012452;28;20423;-65
2022/12/07 08:36:05;;;;;;;6.67;5.00;;;3.90;99.90;;;;;;5012533;28;20996;-65
2022/12/07 08:38:31;;;;;;;7.13;5.10;;;3.90;99.90;;;;;;5012352;28;20407;-64
2022/12/07 08:40:58;;;;;;;6.40;5.03;;;3.80;99.90;;;;;;5012172;28;20538;-63
2022/12/07 08:43:24;;;;;;;5.43;4.23;;;3.90;99.90;;;;;;5012587;28;20164;-65
2022/12/07 08:46:21;;;;;;;6.00;5.10;;;3.90;99.90;;;;;;5012297;28;20411;-65
2022/12/07 08:48:50;;;;;;;9.00;3.80;;;3.90;99.90;;;;;;4995766;28;20786;-65
2022/12/07 08:51:16;;;;;;;4.77;3.23;;;3.90;99.90;;;;;;5012400;28;20825;-65
2022/12/07 08:53:43;;;;;;;5.83;3.83;;;3.90;99.90;;;;;;5010217;28;20422;-65
2022/12/07 08:56:09;;;;;;;4.73;3.60;;;3.90;99.90;;;;;;5012065;28;20235;-66
2022/12/07 08:58:36;;;;;;;6.80;4.37;;;3.90;99.90;;;;;;5012553;28;20411;-64
2022/12/07 09:01:03;;;;;;;5.20;3.67;;;4.00;99.90;;;;;;5013095;28;20518;-64
2022/12/07 09:03:29;;;;;;;4.23;3.43;;;4.00;99.90;;;;;;5012980;28;20434;-64
2022/12/07 09:05:54;;;;;;;7.10;3.13;;;4.00;99.90;;;;;;5012907;28;20419;-64
2022/12/07 09:08:23;;;;;;;5.80;3.67;;;4.00;99.90;;;;;;5013078;28;20180;-64
2022/12/07 09:10:48;;;;;;;4.00;3.10;;;4.00;99.90;;;;;;5008203;28;20242;-64
2022/12/07 09:13:14;;;;;;;6.13;3.67;;;4.10;99.90;;;;;;5012384;28;20482;-64
2022/12/07 09:15:43;;;;;;;3.10;2.17;;;4.10;99.90;;;;;;5010469;28;20204;-65
2022/12/07 09:18:08;;;;;;;3.00;2.70;;;4.10;99.90;;;;;;5000897;28;20415;-64
2022/12/07 09:20:34;;;;;;;2.50;1.83;;;4.10;99.90;;;;;;5012214;28;20437;-65
2022/12/07 09:22:59;;;;;;;3.93;2.40;;;4.00;99.90;;;;;;5012599;28;20176;-65
2022/12/07 09:25:26;;;;;;;2.53;2.33;;;3.90;99.90;;;;;;5013472;28;20235;-65
2022/12/07 09:27:58;;;;;;;3.30;2.40;;;3.80;99.90;;;;;;5015460;28;20239;-64
2022/12/07 09:30:25;;;;;;;2.30;2.17;;;3.80;99.90;;;;;;5015097;28;20878;-64
2022/12/07 09:32:53;;;;;;;2.13;1.93;;;3.90;99.90;;;;;;5015504;28;20411;-64
2022/12/07 09:35:19;;;;;;;2.00;1.90;;;3.80;99.90;;;;;;5014824;28;20973;-68
2022/12/07 09:37:44;;;;;;;2.50;2.20;;;3.90;99.90;;;;;;5013251;28;20429;-66
2022/12/07 09:40:11;;;;;;;2.23;2.10;;;3.80;99.90;;;;;;5003392;28;20240;-65
2022/12/07 09:42:41;;;;;;;2.03;1.93;;;3.70;99.90;;;;;;5002544;28;20210;-66
2022/12/07 09:45:39;;;;;;;2.33;1.83;;;3.60;99.90;;;;;;5001452;28;20527;-66
2022/12/07 09:48:05;;;;;;;1.83;1.67;;;3.60;99.90;;;;;;5006409;28;20619;-66
2022/12/07 09:50:31;;;;;;;1.90;1.80;;;3.70;99.90;;;;;;5014986;28;20442;-65
2022/12/07 09:53:13;;;;;;;3.27;2.73;;;3.60;99.90;;;;;;5015277;28;20796;-67
2022/12/07 09:55:40;;;;;;;6.33;2.37;;;3.70;99.90;;;;;;5013458;28;20210;-66
2022/12/07 09:58:06;;;;;;;2.70;2.50;;;3.60;99.90;;;;;;5015974;28;20961;-66
2022/12/07 10:00:32;;;;;;;2.60;2.13;;;3.60;99.90;;;;;;5015012;28;20530;-65
2022/12/07 10:02:59;;;;;;;1.97;1.77;;;3.50;99.90;;;;;;5014938;28;20628;-65
2022/12/07 10:05:39;;;;;;;2.20;2.10;;;3.50;99.90;;;;;;5014680;28;20180;-67
2022/12/07 10:08:07;;;;;;;2.20;2.00;;;3.50;99.90;;;;;;5014583;28;20978;-64
2022/12/07 10:10:34;;;;;;;4.20;1.80;;;3.60;99.90;;;;;;5017647;28;20439;-66
2022/12/07 10:13:06;;;;;;;1.70;1.60;;;3.60;99.90;;;;;;5016482;28;20411;-65
2022/12/07 10:15:45;;;;;;;2.53;2.03;;;3.70;99.90;;;;;;5015529;28;21051;-67
2022/12/07 10:18:36;;;;;;;2.60;2.40;;;3.70;99.90;;;;;;5014621;28;20407;-65
2022/12/07 10:21:20;;;;;;;2.03;1.73;;;3.60;99.90;;;;;;5014868;28;20792;-66
2022/12/07 10:24:10;;;;;;;1.90;1.70;;;3.60;99.90;;;;;;5011578;28;20399;-67
2022/12/07 10:26:38;;;;;;;2.27;2.00;;;3.50;99.90;;;;;;5010338;28;20403;-65
2022/12/07 10:29:19;;;;;;;2.00;1.90;;;3.60;99.90;;;;;;4997191;28;20469;-65
2022/12/07 10:31:49;;;;;;;5.27;2.23;;;3.70;99.90;;;;;;5015312;28;20426;-66
2022/12/07 10:34:41;;;;;;;2.27;1.67;;;3.80;99.90;;;;;;5015323;28;20403;-66
2022/12/07 10:37:17;;;;;;;2.93;2.13;;;3.80;99.90;;;;;;5012506;28;20765;-67
2022/12/07 10:39:45;;;;;;;2.60;2.40;;;3.80;99.90;;;;;;5015848;28;20442;-66
2022/12/07 10:42:22;;;;;;;2.70;1.70;;;3.90;99.90;;;;;;5000832;28;20453;-66
2022/12/07 10:44:50;;;;;;;2.00;1.80;;;4.00;99.90;;;;;;5013720;28;20457;-66
2022/12/07 10:47:48;;;;;;;2.70;2.27;;;3.90;99.90;;;;;;5015087;28;20516;-66
2022/12/07 10:50:19;;;;;;;3.23;2.80;;;3.90;99.90;;;;;;5014706;28;20807;-66
2022/12/07 10:52:58;;;;;;;6.00;2.40;;;3.90;99.90;;;;;;5015180;28;20415;-67
2022/12/07 10:55:44;;;;;;;2.00;1.80;;;3.80;99.90;;;;;;5006493;28;20549;-66
2022/12/07 10:58:36;;;;;;;3.93;2.37;;;3.70;99.90;;;;;;5008370;28;20783;-69
2022/12/07 11:01:19;;;;;;;2.40;2.20;;;3.60;99.90;;;;;;5012861;28;20489;-69
2022/12/07 11:04:18;;;;;;;10.73;2.90;;;3.70;99.90;;;;;;5012258;28;20418;-70
2022/12/07 11:06:51;;;;;;;4.33;2.80;;;3.90;99.90;;;;;;5006981;28;20427;-69
2022/12/07 11:09:49;;;;;;;2.73;2.00;;;3.80;99.90;;;;;;5007881;28;20755;-69
2022/12/07 11:12:44;;;;;;;2.63;2.40;;;3.80;99.90;;;;;;5011367;28;21059;-69
2022/12/07 11:15:19;;;;;;;3.20;2.90;;;3.70;99.90;;;;;;5012267;28;20459;-69
2022/12/07 11:18:26;;;;;;;2.60;2.37;;;3.80;99.90;;;;;;5012643;28;20410;-69
2022/12/07 11:21:25;;;;;;;3.73;2.50;;;3.70;99.90;;;;;;5048907;23;20480;-67
2022/12/07 11:24:17;;;;;;;3.43;2.83;;;3.70;99.90;;;;;;5048191;28;20406;-67
2022/12/07 11:27:09;;;;;;;3.37;3.07;;;3.80;99.90;;;;;;5051285;28;20503;-67
2022/12/07 11:29:58;;;;;;;4.67;3.77;;;3.70;99.90;;;;;;5046808;28;20949;-67
2022/12/07 11:32:57;;;;;;;3.10;2.77;;;3.80;99.90;;;;;;5049273;28;20412;-67
2022/12/07 11:35:59;;;;;;;5.23;3.20;;;3.80;99.90;;;;;;5050817;28;20446;-67
2022/12/07 11:38:41;;;;;;;4.83;3.30;;;3.90;99.90;;;;;;5038550;28;20993;-67
2022/12/07 11:41:12;;;;;;;4.23;3.40;;;3.90;99.90;;;;;;5050522;28;20433;-67
2022/12/07 11:43:53;;;;;;;3.83;2.90;;;3.90;99.90;;;;;;5050691;28;20496;-66
2022/12/07 11:46:24;;;;;;;3.77;3.43;;;3.90;99.90;;;;;;5041418;28;20422;-67
2022/12/07 11:49:00;;;;;;;4.43;3.10;;;3.90;99.90;;;;;;5050280;28;20947;-66
2022/12/07 11:51:27;;;;;;;3.67;3.37;;;3.90;99.90;;;;;;5044872;28;20846;-67
2022/12/07 11:53:59;;;;;;;4.03;3.60;;;4.10;99.90;;;;;;5041836;28;20422;-68
2022/12/07 11:56:27;;;;;;;3.83;3.43;;;4.10;99.90;;;;;;5047522;28;20526;-66
2022/12/07 11:59:03;;;;;;;5.07;3.40;;;4.00;99.90;;;;;;5040340;28;20433;-66
2022/12/07 12:01:34;;;;;;;4.47;4.00;;;4.00;99.90;;;;;;5049171;28;21155;-68
2022/12/07 12:04:30;;;;;;;3.93;2.67;;;4.10;99.90;;;;;;5047772;28;20445;-65
2022/12/07 12:06:56;;;;;;;5.80;3.67;;;4.20;99.90;;;;;;5039784;28;20460;-65
2022/12/07 12:09:34;;;;;;;5.90;3.50;;;4.20;99.90;;;;;;5048167;28;20448;-65
2022/12/07 12:12:06;;;;;;;4.10;3.00;;;4.20;99.90;;;;;;5047069;28;20605;-67
2022/12/07 12:14:53;;;;;;;4.20;3.07;;;4.20;99.90;;;;;;5045034;28;20493;-65
2022/12/07 12:17:46;;;;;;;4.00;3.70;;;4.30;99.90;;;;;;5043257;28;20919;-70
2022/12/07 12:20:44;;;;;;;3.53;3.10;;;4.30;99.90;;;;;;5043141;28;20536;-70
2022/12/07 12:23:44;;;;;;;3.57;2.60;;;4.30;99.90;;;;;;5025829;28;20417;-69
2022/12/07 12:26:22;;;;;;;3.63;3.07;;;4.30;99.90;;;;;;5030574;28;20417;-67
2022/12/07 12:28:59;;;;;;;2.93;2.47;;;4.40;99.90;;;;;;5042863;28;20940;-67
2022/12/07 12:31:27;;;;;;;6.23;3.37;;;4.40;99.90;;;;;;5050609;28;20486;-68
2022/12/07 12:34:01;;;;;;;3.53;2.87;;;4.40;99.90;;;;;;5046525;28;20536;-67
2022/12/07 12:36:45;;;;;;;5.60;3.20;;;4.40;99.90;;;;;;5037351;28;20966;-67
2022/12/07 12:39:18;;;;;;;5.70;2.73;;;4.60;99.90;;;;;;5049583;28;20919;-67
2022/12/07 12:44:15;;;;;;;4.07;3.73;;;4.50;99.90;;;;;;5048070;28;20404;-67
2022/12/07 12:46:54;;;;;;;5.47;3.10;;;4.40;99.90;;;;;;5049900;28;20503;-67
2022/12/07 12:49:19;;;;;;;5.23;3.27;;;4.60;99.90;;;;;;5043973;28;20773;-68
2022/12/07 12:51:49;;;;;;;3.23;2.80;;;4.60;99.90;;;;;;5044935;28;20443;-67
2022/12/07 12:54:26;;;;;;;3.47;2.37;;;4.60;99.90;;;;;;5041368;28;20171;-64
2022/12/07 12:57:15;;;;;;;3.67;2.77;;;4.60;99.90;;;;;;5041204;28;20798;-67
2022/12/07 12:59:56;;;;;;;5.63;2.83;;;4.50;99.90;;;;;;5045081;28;20521;-67
2022/12/07 13:02:38;;;;;;;5.13;2.73;;;4.40;99.90;;;;;;5036911;28;20430;-68
2022/12/07 13:05:15;;;;;;;6.80;2.30;;;4.40;99.90;;;;;;5045555;28;20418;-67
2022/12/07 13:07:47;;;;;;;5.00;2.93;;;4.40;99.90;;;;;;5049124;28;20815;-67
2022/12/07 13:10:30;;;;;;;3.73;2.93;;;4.50;99.90;;;;;;5044735;28;20634;-67
2022/12/07 13:13:10;;;;;;;3.27;2.53;;;4.50;99.90;;;;;;5045699;28;21034;-67
2022/12/07 13:15:38;;;;;;;2.33;2.10;;;4.50;99.90;;;;;;5045875;28;20767;-67
2022/12/07 13:18:31;;;;;;;3.63;2.93;;;4.40;99.90;;;;;;5053114;28;20898;-66